createdAt,value
2023-03-12T00:03:55.599Z,12.20
2023-03-12T00:18:11.469Z,12.28
2023-03-12T00:28:47.652Z,11.90
2023-03-12T00:36:00.352Z,11.08
2023-03-12T00:46:42.907Z,9.70
2023-03-12T00:50:07.152Z,9.58
2023-03-12T00:53:19.381Z,9.40
2023-03-12T01:00:08.863Z,11.13
2023-03-12T01:03:21.992Z,11.23
2023-03-12T01:10:34.761Z,12.08
2023-03-12T01:13:59.133Z,11.23
2023-03-12T01:20:51.830Z,12.48
2023-03-12T01:24:16.498Z,10.88
2023-03-12T01:27:40.697Z,10.70
2023-03-12T01:38:19.259Z,11.73
2023-03-12T01:41:36.184Z,11.98
2023-03-12T01:48:16.260Z,11.70
2023-03-12T01:51:31.741Z,13.83
2023-03-12T01:54:48.455Z,14.35
2023-03-12T01:58:04.437Z,13.35
2023-03-12T02:05:04.195Z,13.40
2023-03-12T02:08:17.768Z,12.73
2023-03-12T02:11:43.460Z,13.23
2023-03-12T02:19:20.068Z,13.48
2023-03-12T02:22:33.035Z,13.73
2023-03-12T02:25:49.032Z,13.88
2023-03-12T02:29:03.189Z,13.53
2023-03-12T02:32:22.188Z,12.40
2023-03-12T02:35:35.299Z,13.65
2023-03-12T02:38:52.049Z,13.58
2023-03-12T02:42:05.589Z,13.48
2023-03-12T02:45:18.608Z,13.30
2023-03-12T02:48:30.912Z,13.05
2023-03-12T02:51:43.022Z,13.08
2023-03-12T02:54:55.430Z,13.00
2023-03-12T02:58:07.970Z,12.50
2023-03-12T03:01:20.624Z,12.65
2023-03-12T03:04:35.040Z,13.40
2023-03-12T03:07:47.541Z,12.30
2023-03-12T03:11:12.946Z,13.60
2023-03-12T03:14:26.278Z,12.98
2023-03-12T03:17:38.902Z,13.53
2023-03-12T03:20:51.109Z,11.48
2023-03-12T03:28:21.199Z,9.93
2023-03-12T03:43:13.242Z,7.50
2023-03-12T03:58:26.801Z,8.28
2023-03-12T04:05:39.705Z,8.58
2023-03-12T04:08:52.167Z,8.23
2023-03-12T04:12:05.587Z,8.48
2023-03-12T04:19:13.852Z,9.55
2023-03-12T04:41:44.228Z,7.83
2023-03-12T04:49:01.609Z,9.35
2023-03-12T04:52:15.296Z,8.95
2023-03-12T04:55:27.750Z,9.18
2023-03-12T05:06:07.417Z,8.33
2023-03-12T05:09:19.827Z,8.78
2023-03-12T05:16:15.817Z,7.55
2023-03-12T05:23:09.165Z,8.23
2023-03-12T05:26:31.672Z,8.38
2023-03-12T05:29:51.403Z,7.80
2023-03-12T05:33:04.838Z,7.48
2023-03-12T05:36:18.983Z,7.98
2023-03-12T05:39:33.136Z,8.10
2023-03-12T05:46:27.971Z,7.55
2023-03-12T05:57:15.757Z,6.65
2023-03-12T06:08:24.537Z,6.40
2023-03-12T06:11:39.709Z,6.18
2023-03-12T06:47:51.007Z,6.48
2023-03-12T06:54:56.075Z,6.10
2023-03-12T07:01:49.302Z,6.38
2023-03-12T07:05:12.456Z,6.35
2023-03-12T07:12:18.591Z,5.08
2023-03-12T07:30:33.754Z,4.78
2023-03-12T07:41:30.262Z,3.63
2023-03-12T07:49:01.096Z,4.00
2023-03-12T07:52:14.138Z,4.30
2023-03-12T07:55:26.517Z,3.83
2023-03-12T07:58:39.460Z,3.43
2023-03-12T08:01:52.093Z,3.70
2023-03-12T08:05:04.419Z,3.60
2023-03-12T08:08:17.384Z,3.60
2023-03-12T08:11:31.009Z,3.75
2023-03-12T08:14:44.018Z,3.60
2023-03-12T08:17:56.250Z,3.15
2023-03-12T08:21:08.850Z,3.30
2023-03-12T08:24:21.591Z,3.20
2023-03-12T08:27:33.971Z,3.15
2023-03-12T08:30:48.316Z,3.73
2023-03-12T08:34:00.976Z,3.10
2023-03-12T08:37:13.489Z,2.95
2023-03-12T08:40:26.412Z,3.15
2023-03-12T08:43:38.717Z,3.20
2023-03-12T08:46:50.887Z,2.55
2023-03-12T08:50:03.295Z,2.60
2023-03-12T08:53:15.509Z,2.50
2023-03-12T08:56:27.703Z,4.20
2023-03-12T08:59:39.917Z,2.40
2023-03-12T09:02:54.396Z,2.98
2023-03-12T09:06:16.993Z,2.70
2023-03-12T09:09:29.240Z,2.63
2023-03-12T09:12:41.648Z,2.68
2023-03-12T09:15:53.820Z,2.53
2023-03-12T09:19:06.199Z,2.18
2023-03-12T09:22:18.578Z,2.53
2023-03-12T09:25:30.686Z,2.68
2023-03-12T09:28:44.861Z,2.30
2023-03-12T09:31:57.505Z,2.08
2023-03-12T09:35:10.969Z,2.20
2023-03-12T09:38:23.137Z,2.55
2023-03-12T09:41:40.309Z,2.03
2023-03-12T09:48:08.065Z,2.28
2023-03-12T09:51:28.060Z,2.20
2023-03-12T09:54:47.588Z,2.13
2023-03-12T09:58:00.857Z,2.48
2023-03-12T10:01:30.769Z,3.98
2023-03-12T10:04:59.358Z,3.03
2023-03-12T10:08:24.007Z,2.55
2023-03-12T10:11:33.605Z,3.25
2023-03-12T10:14:56.200Z,3.33
2023-03-12T10:18:22.059Z,2.60
2023-03-12T10:21:40.178Z,3.53
2023-03-12T10:25:04.301Z,3.33
2023-03-12T10:28:23.680Z,3.08
2023-03-12T10:31:41.100Z,3.50
2023-03-12T10:34:57.188Z,3.58
2023-03-12T10:38:13.783Z,3.30
2023-03-12T10:41:31.236Z,3.95
2023-03-12T10:44:45.640Z,3.63
2023-03-12T10:48:02.048Z,3.83
2023-03-12T10:51:16.820Z,3.70
2023-03-12T10:54:34.584Z,4.48
2023-03-12T10:57:49.285Z,3.90
2023-03-12T11:01:08.661Z,4.20
2023-03-12T11:04:30.286Z,4.23
2023-03-12T11:07:43.105Z,3.40
2023-03-12T11:10:56.240Z,3.45
2023-03-12T11:14:22.456Z,4.30
2023-03-12T11:17:36.342Z,4.15
2023-03-12T11:20:48.835Z,3.50
2023-03-12T11:24:18.320Z,2.93
2023-03-12T11:27:40.186Z,3.75
2023-03-12T11:30:53.364Z,3.58
2023-03-12T11:34:11.225Z,4.28
2023-03-12T11:40:51.743Z,4.13
2023-03-12T11:44:29.015Z,3.58
2023-03-12T11:47:57.788Z,3.53
2023-03-12T12:26:18.623Z,4.33
2023-03-12T12:29:55.208Z,4.85
2023-03-12T12:36:29.000Z,4.60
2023-03-12T12:39:47.068Z,3.90
2023-03-12T12:43:19.039Z,4.45
2023-03-12T12:46:37.169Z,4.35
2023-03-12T12:49:53.919Z,4.20
2023-03-12T12:53:12.752Z,4.30
2023-03-12T12:56:32.717Z,4.35
2023-03-12T12:59:50.811Z,4.43
2023-03-12T13:03:04.771Z,3.98
2023-03-12T13:06:17.836Z,4.13
2023-03-12T13:09:43.884Z,4.65
2023-03-12T13:12:59.661Z,4.85
2023-03-12T13:16:39.175Z,4.95
2023-03-12T13:20:00.864Z,4.03
2023-03-12T13:23:39.011Z,4.63
2023-03-12T13:27:06.818Z,4.33
2023-03-12T13:30:56.584Z,3.95
2023-03-12T13:34:37.738Z,4.00
2023-03-12T13:38:08.049Z,4.23
2023-03-12T13:41:32.369Z,4.65
2023-03-12T13:44:47.069Z,4.78
2023-03-12T13:48:06.655Z,4.38
2023-03-12T13:51:24.489Z,5.00
2023-03-12T13:54:43.315Z,4.00
2023-03-12T13:58:00.657Z,4.15
2023-03-12T14:01:18.378Z,4.20
2023-03-12T14:04:37.094Z,4.40
2023-03-12T14:08:15.438Z,4.35
2023-03-12T14:11:40.396Z,4.10
2023-03-12T14:15:19.570Z,3.55
2023-03-12T14:18:35.859Z,3.65
2023-03-12T14:21:51.684Z,3.15
2023-03-12T14:25:08.401Z,3.68
2023-03-12T14:28:23.726Z,3.30
2023-03-12T14:31:37.450Z,5.58
2023-03-12T14:34:54.160Z,3.80
2023-03-12T14:38:10.344Z,3.30
2023-03-12T14:41:27.646Z,3.80
2023-03-12T14:44:42.304Z,3.73
2023-03-12T14:47:58.962Z,2.90
2023-03-12T14:51:23.834Z,3.53
2023-03-12T14:54:35.723Z,3.48
2023-03-12T14:57:48.178Z,3.75
2023-03-12T15:01:06.633Z,3.15
2023-03-12T15:04:25.778Z,3.25
2023-03-12T15:07:41.625Z,2.95
2023-03-12T15:10:58.543Z,3.25
2023-03-12T15:14:15.860Z,3.28
2023-03-12T15:17:30.455Z,3.45
2023-03-12T15:20:43.571Z,3.78
2023-03-12T15:23:57.766Z,3.65
2023-03-12T15:27:34.707Z,3.50
2023-03-12T15:30:49.326Z,3.90
2023-03-12T15:34:12.111Z,3.03
2023-03-12T15:37:33.797Z,3.83
2023-03-12T15:40:46.037Z,3.23
2023-03-12T15:44:01.283Z,3.23
2023-03-12T15:47:20.018Z,2.73
2023-03-12T15:50:36.660Z,3.13
2023-03-12T15:53:50.135Z,3.53
2023-03-12T15:57:21.165Z,3.40
2023-03-12T16:00:38.978Z,4.33
2023-03-12T16:03:52.159Z,2.95
2023-03-12T16:07:04.240Z,2.95
2023-03-12T16:10:21.275Z,3.10
2023-03-12T16:16:45.787Z,3.70
2023-03-12T16:19:57.982Z,3.20
2023-03-12T16:23:10.171Z,3.83
2023-03-12T16:26:22.704Z,3.38
2023-03-12T16:29:39.023Z,3.50
2023-03-12T16:32:51.133Z,3.10
2023-03-12T16:36:03.290Z,3.43
2023-03-12T16:39:17.704Z,3.48
2023-03-12T16:42:29.768Z,3.53
2023-03-12T16:45:43.722Z,3.50
2023-03-12T16:48:58.751Z,4.15
2023-03-12T16:52:22.412Z,3.93
2023-03-12T16:55:40.313Z,4.25
2023-03-12T16:58:54.354Z,4.43
2023-03-12T17:02:06.900Z,4.50
2023-03-12T17:05:19.941Z,4.15
2023-03-12T17:08:32.529Z,4.68
2023-03-12T17:11:44.943Z,4.85
2023-03-12T17:14:57.432Z,4.98
2023-03-12T17:18:09.653Z,5.45
2023-03-12T17:21:24.808Z,5.13
2023-03-12T17:24:36.826Z,5.38
2023-03-12T17:27:48.734Z,6.03
2023-03-12T17:31:01.339Z,5.98
2023-03-12T17:34:13.423Z,5.63
2023-03-12T17:37:25.549Z,5.78
2023-03-12T17:40:37.695Z,6.23
2023-03-12T17:43:49.812Z,5.65
2023-03-12T17:47:02.029Z,5.78
2023-03-12T17:50:17.272Z,5.83
2023-03-12T17:53:29.406Z,5.50
2023-03-12T17:56:41.758Z,6.68
2023-03-12T17:59:53.812Z,6.68
2023-03-12T18:03:06.040Z,6.75
2023-03-12T18:06:19.869Z,6.55
2023-03-12T18:09:32.552Z,6.80
2023-03-12T18:12:44.803Z,6.10
2023-03-12T18:16:01.938Z,6.88
2023-03-12T18:19:14.082Z,6.68
2023-03-12T18:22:26.079Z,8.35
2023-03-12T18:25:38.286Z,7.50
2023-03-12T18:28:50.377Z,7.25
2023-03-12T18:32:02.942Z,6.75
2023-03-12T18:35:16.601Z,7.20
2023-03-12T18:38:28.660Z,6.33
2023-03-12T18:41:42.096Z,6.88
2023-03-12T18:44:54.983Z,6.73
2023-03-12T18:48:07.327Z,6.95
2023-03-12T18:51:19.701Z,6.43
2023-03-12T18:54:33.625Z,6.38
2023-03-12T18:57:46.229Z,6.58
2023-03-12T19:01:02.000Z,6.73
2023-03-12T19:04:15.388Z,6.95
2023-03-12T19:07:27.916Z,7.65
2023-03-12T19:10:40.240Z,7.13
2023-03-12T19:13:56.305Z,6.85
2023-03-12T19:17:09.334Z,6.73
2023-03-12T19:20:22.635Z,6.30
2023-03-12T19:23:35.802Z,6.55
2023-03-12T19:26:49.756Z,6.15
2023-03-12T19:30:02.635Z,5.95
2023-03-12T19:33:14.979Z,5.88
2023-03-12T19:36:27.587Z,7.80
2023-03-12T19:39:39.730Z,8.45
2023-03-12T19:42:52.007Z,7.13
2023-03-12T19:46:04.538Z,8.10
2023-03-12T19:49:16.956Z,8.70
2023-03-12T19:52:29.302Z,9.33
2023-03-12T19:55:41.647Z,10.50
2023-03-12T19:58:54.392Z,9.85
2023-03-12T20:02:06.713Z,9.63
2023-03-12T20:05:20.259Z,10.03
2023-03-12T20:08:36.227Z,10.65
2023-03-12T20:11:48.867Z,11.48
2023-03-12T20:15:01.191Z,12.58
2023-03-12T20:18:13.621Z,18.58
2023-03-12T20:21:25.872Z,12.70
2023-03-12T20:24:38.164Z,12.53
2023-03-12T20:27:50.521Z,13.33
2023-03-12T20:31:05.092Z,14.05
2023-03-12T20:34:17.560Z,14.30
2023-03-12T20:37:30.195Z,15.73
2023-03-12T20:40:42.433Z,15.58
2023-03-12T20:43:56.846Z,15.53
2023-03-12T20:47:09.240Z,14.75
2023-03-12T20:50:22.173Z,16.30
2023-03-12T20:53:34.559Z,15.55
2023-03-12T20:56:47.505Z,16.45
2023-03-12T21:00:01.274Z,17.50
2023-03-12T21:03:17.046Z,21.05
2023-03-12T21:06:29.489Z,17.65
2023-03-12T21:09:42.279Z,17.90
2023-03-12T21:12:54.651Z,15.88
2023-03-12T21:16:08.849Z,15.95
2023-03-12T21:19:21.741Z,16.20
2023-03-12T21:22:37.327Z,15.83
2023-03-12T21:25:49.604Z,14.35
2023-03-12T21:29:02.081Z,14.05
2023-03-12T21:32:14.577Z,12.73
2023-03-12T21:35:27.505Z,12.60
2023-03-12T21:38:40.832Z,12.23
2023-03-12T21:41:53.122Z,10.93
2023-03-12T21:45:05.324Z,11.45
2023-03-12T21:48:17.632Z,12.03
2023-03-12T21:51:30.167Z,11.33
2023-03-12T21:54:42.976Z,11.15
2023-03-12T21:57:55.192Z,26.60
2023-03-12T22:01:19.257Z,13.08
2023-03-12T22:04:32.276Z,11.70
2023-03-12T22:07:44.794Z,10.78
2023-03-12T22:10:57.578Z,11.25
2023-03-12T22:14:09.954Z,11.28
2023-03-12T22:17:22.124Z,9.95
2023-03-12T22:20:34.224Z,10.75
2023-03-12T22:23:47.997Z,10.33
2023-03-12T22:27:01.950Z,9.80
2023-03-12T22:30:17.951Z,8.30
2023-03-12T22:33:30.107Z,7.93
2023-03-12T22:36:44.017Z,7.35
2023-03-12T22:39:58.656Z,8.03
2023-03-12T22:43:10.978Z,7.03
2023-03-12T22:46:25.284Z,6.38
2023-03-12T22:49:37.662Z,6.40
2023-03-12T22:52:49.852Z,6.35
2023-03-12T22:56:14.818Z,6.63
2023-03-12T22:59:27.074Z,6.68
2023-03-12T23:02:40.225Z,6.25
2023-03-12T23:05:52.385Z,6.15
2023-03-12T23:09:05.341Z,5.78
2023-03-12T23:12:18.092Z,5.58
2023-03-12T23:15:40.535Z,6.13
2023-03-12T23:18:44.880Z,5.55
2023-03-12T23:21:56.960Z,5.35
2023-03-12T23:25:09.714Z,5.95
2023-03-12T23:28:21.853Z,5.93
2023-03-12T23:31:35.442Z,6.03
2023-03-12T23:34:47.435Z,5.93
2023-03-12T23:38:00.107Z,6.00
2023-03-12T23:41:15.594Z,5.33
2023-03-12T23:44:27.717Z,5.68
2023-03-12T23:47:39.583Z,6.55
2023-03-12T23:50:51.487Z,5.58
2023-03-12T23:54:08.245Z,5.70
2023-03-12T23:57:20.505Z,4.73
